createdAt,value
2019-01-12T00:00:36.448Z,48.27
2019-01-12T00:03:05.911Z,40.80
2019-01-12T00:05:35.077Z,43.83
2019-01-12T00:08:04.309Z,43.17
2019-01-12T00:10:33.780Z,36.90
2019-01-12T00:13:02.937Z,43.50
2019-01-12T00:15:33.157Z,42.30
2019-01-12T00:18:02.361Z,39.07
2019-01-12T00:20:43.632Z,43.57
2019-01-12T00:23:13.235Z,43.43
2019-01-12T00:25:42.241Z,44.17
2019-01-12T00:28:11.369Z,40.53
2019-01-12T00:30:40.730Z,37.60
2019-01-12T00:33:10.308Z,42.13
2019-01-12T00:35:39.267Z,43.97
2019-01-12T00:38:08.489Z,46.27
2019-01-12T00:40:37.662Z,37.70
2019-01-12T00:43:06.764Z,39.63
2019-01-12T00:45:35.850Z,39.93
2019-01-12T00:48:04.921Z,44.67
2019-01-12T00:50:34.079Z,41.23
2019-01-12T00:53:03.237Z,44.93
2019-01-12T00:55:32.598Z,37.73
2019-01-12T00:58:02.159Z,47.90
2019-01-12T01:00:31.451Z,31.87
2019-01-12T01:03:00.542Z,41.10
2019-01-12T01:05:29.622Z,35.87
2019-01-12T01:07:58.918Z,31.23
2019-01-12T01:10:28.112Z,44.43
2019-01-12T01:12:57.206Z,41.23
2019-01-12T01:15:26.314Z,41.80
2019-01-12T01:17:55.302Z,41.93
2019-01-12T01:20:24.434Z,43.03
2019-01-12T01:22:53.693Z,42.73
2019-01-12T01:25:22.841Z,41.33
2019-01-12T01:27:51.919Z,40.40
2019-01-12T01:30:21.477Z,41.03
2019-01-12T01:32:50.597Z,36.80
2019-01-12T01:35:19.634Z,42.77
2019-01-12T01:37:48.762Z,44.83
2019-01-12T01:40:18.800Z,41.60
2019-01-12T01:42:48.558Z,40.00
2019-01-12T01:45:18.197Z,45.90
2019-01-12T01:47:47.328Z,44.27
2019-01-12T01:50:16.641Z,34.87
2019-01-12T01:52:45.833Z,33.70
2019-01-12T01:55:15.003Z,34.60
2019-01-12T01:57:45.013Z,39.60
2019-01-12T02:00:16.693Z,38.70
2019-01-12T02:02:45.781Z,41.70
2019-01-12T02:05:15.426Z,42.10
2019-01-12T02:07:44.497Z,39.83
2019-01-12T02:10:19.417Z,32.63
2019-01-12T02:12:48.509Z,41.77
2019-01-12T02:15:18.467Z,37.20
2019-01-12T02:17:47.587Z,34.47
2019-01-12T02:20:16.899Z,35.60
2019-01-12T02:22:46.064Z,38.70
2019-01-12T02:25:15.291Z,42.70
2019-01-12T02:27:44.368Z,38.37
2019-01-12T02:30:17.067Z,45.30
2019-01-12T02:32:46.142Z,38.57
2019-01-12T02:35:15.183Z,38.13
2019-01-12T02:37:44.337Z,40.43
2019-01-12T02:40:13.681Z,44.70
2019-01-12T02:42:42.715Z,39.13
2019-01-12T02:45:12.270Z,36.60
2019-01-12T02:47:41.353Z,39.23
2019-01-12T02:50:10.693Z,43.23
2019-01-12T02:52:39.820Z,38.57
2019-01-12T02:55:09.277Z,38.70
2019-01-12T02:57:38.585Z,34.77
2019-01-12T03:00:10.845Z,36.70
2019-01-12T03:02:39.880Z,43.77
2019-01-12T03:05:09.329Z,43.23
2019-01-12T03:07:38.520Z,39.23
2019-01-12T03:10:09.202Z,36.03
2019-01-12T03:12:38.196Z,33.63
2019-01-12T03:15:09.179Z,39.17
2019-01-12T03:17:38.414Z,41.87
2019-01-12T03:20:09.841Z,37.73
2019-01-12T03:22:38.911Z,41.43
2019-01-12T03:25:08.124Z,44.67
2019-01-12T03:27:37.230Z,38.73
2019-01-12T03:30:09.358Z,41.83
2019-01-12T03:32:38.360Z,41.70
2019-01-12T03:35:07.594Z,35.80
2019-01-12T03:37:36.639Z,40.27
2019-01-12T03:40:07.810Z,35.93
2019-01-12T03:42:36.861Z,42.60
2019-01-12T03:45:07.873Z,35.77
2019-01-12T03:47:36.833Z,39.47
2019-01-12T03:50:06.878Z,36.00
2019-01-12T03:52:35.913Z,36.83
2019-01-12T03:55:05.542Z,31.23
2019-01-12T03:57:34.626Z,35.43
2019-01-12T04:00:05.180Z,39.27
2019-01-12T04:02:34.237Z,44.23
2019-01-12T04:05:03.648Z,40.97
2019-01-12T04:07:32.698Z,45.80
2019-01-12T04:10:01.704Z,36.70
2019-01-12T04:12:30.773Z,33.93
2019-01-12T04:14:59.834Z,33.20
2019-01-12T04:17:28.930Z,37.07
2019-01-12T04:19:57.959Z,34.63
2019-01-12T04:22:26.985Z,35.80
2019-01-12T04:24:55.948Z,44.07
2019-01-12T04:27:24.982Z,44.63
2019-01-12T04:29:53.965Z,45.03
2019-01-12T04:32:22.952Z,45.37
2019-01-12T04:34:51.947Z,39.40
2019-01-12T04:37:20.904Z,44.33
2019-01-12T04:39:50.007Z,41.97
2019-01-12T04:42:19.121Z,35.50
2019-01-12T04:44:48.267Z,39.50
2019-01-12T04:47:17.230Z,48.17
2019-01-12T04:49:46.340Z,36.07
2019-01-12T04:52:15.372Z,39.13
2019-01-12T04:54:44.430Z,47.60
2019-01-12T04:57:13.403Z,36.67
2019-01-12T04:59:42.437Z,37.07
2019-01-12T05:02:11.509Z,42.40
2019-01-12T05:04:40.554Z,40.30
2019-01-12T05:07:09.591Z,27.13
2019-01-12T05:09:38.571Z,34.07
2019-01-12T05:12:07.560Z,40.23
2019-01-12T05:14:36.554Z,39.23
2019-01-12T05:17:05.701Z,36.90
2019-01-12T05:19:34.853Z,38.73
2019-01-12T05:22:03.942Z,34.07
2019-01-12T05:24:33.021Z,55.43
2019-01-12T05:27:02.070Z,33.70
2019-01-12T05:29:31.059Z,33.90
2019-01-12T05:32:00.135Z,36.80
2019-01-12T05:34:29.210Z,34.60
2019-01-12T05:36:58.195Z,33.53
2019-01-12T05:39:27.261Z,31.97
2019-01-12T05:41:56.341Z,28.43
2019-01-12T05:44:25.412Z,34.80
2019-01-12T05:46:54.447Z,30.27
2019-01-12T05:49:23.493Z,32.77
2019-01-12T05:51:52.662Z,36.30
2019-01-12T05:54:21.686Z,35.03
2019-01-12T05:56:50.814Z,32.30
2019-01-12T05:59:19.810Z,28.10
2019-01-12T06:01:48.810Z,31.70
2019-01-12T06:04:17.935Z,32.00
2019-01-12T06:06:46.974Z,33.00
2019-01-12T06:09:15.978Z,37.83
2019-01-12T06:11:44.961Z,36.60
2019-01-12T06:14:14.044Z,29.87
2019-01-12T06:16:43.049Z,26.37
2019-01-12T06:19:12.174Z,30.63
2019-01-12T06:21:41.189Z,40.17
2019-01-12T06:24:10.358Z,31.53
2019-01-12T06:26:40.627Z,33.77
2019-01-12T06:29:09.613Z,33.33
2019-01-12T06:31:38.603Z,27.97
2019-01-12T06:34:07.653Z,30.80
2019-01-12T06:36:36.666Z,42.07
2019-01-12T06:39:09.423Z,30.17
2019-01-12T06:41:38.481Z,24.67
2019-01-12T06:44:07.473Z,30.80
2019-01-12T06:46:36.474Z,30.80
2019-01-12T06:49:05.554Z,34.33
2019-01-12T06:51:34.621Z,24.37
2019-01-12T06:54:03.705Z,24.00
2019-01-12T06:56:32.718Z,34.80
2019-01-12T06:59:01.733Z,23.07
2019-01-12T07:01:30.921Z,20.67
2019-01-12T07:03:59.977Z,25.17
2019-01-12T07:06:29.049Z,27.97
2019-01-12T07:08:58.098Z,29.10
2019-01-12T07:11:27.098Z,22.37
2019-01-12T07:13:56.184Z,26.03
2019-01-12T07:16:25.285Z,26.97
2019-01-12T07:18:54.350Z,27.00
2019-01-12T07:21:23.301Z,25.63
2019-01-12T07:23:52.460Z,23.93
2019-01-12T07:26:21.599Z,24.50
2019-01-12T07:28:50.576Z,21.27
2019-01-12T07:31:19.590Z,24.97
2019-01-12T07:33:48.618Z,34.23
2019-01-12T07:36:17.763Z,28.43
2019-01-12T07:38:46.823Z,25.60
2019-01-12T07:41:15.925Z,21.37
2019-01-12T07:43:44.952Z,27.13
2019-01-12T07:46:14.130Z,25.20
2019-01-12T07:48:43.193Z,24.27
2019-01-12T07:51:12.267Z,25.27
2019-01-12T07:53:41.593Z,31.67
2019-01-12T07:56:10.612Z,24.57
2019-01-12T07:58:39.632Z,26.97
2019-01-12T08:01:08.725Z,27.20
2019-01-12T08:03:37.925Z,28.40
2019-01-12T08:06:06.977Z,29.10
2019-01-12T08:08:36.162Z,31.23
2019-01-12T08:11:05.314Z,27.77
2019-01-12T08:13:34.370Z,24.17
2019-01-12T08:16:03.449Z,27.73
2019-01-12T08:18:32.440Z,26.17
2019-01-12T08:21:01.543Z,27.40
2019-01-12T08:23:30.587Z,26.13
2019-01-12T08:25:59.683Z,30.23
2019-01-12T08:28:28.752Z,28.93
2019-01-12T08:30:57.837Z,25.67
2019-01-12T08:33:28.122Z,27.67
2019-01-12T08:35:57.233Z,32.67
2019-01-12T08:38:26.297Z,28.50
2019-01-12T08:40:55.269Z,28.33
2019-01-12T08:43:24.384Z,24.43
2019-01-12T08:45:53.373Z,22.97
2019-01-12T08:48:22.444Z,31.57
2019-01-12T08:50:51.421Z,24.83
2019-01-12T08:53:20.579Z,35.13
2019-01-12T08:55:49.670Z,29.57
2019-01-12T08:58:18.757Z,25.60
2019-01-12T09:00:47.819Z,24.43
2019-01-12T09:03:16.963Z,27.80
2019-01-12T09:05:47.752Z,29.20
2019-01-12T09:08:18.705Z,29.10
2019-01-12T09:10:47.572Z,29.73
2019-01-12T09:13:17.045Z,30.37
2019-01-12T09:15:46.138Z,33.67
2019-01-12T09:18:19.165Z,23.63
2019-01-12T09:20:48.218Z,26.13
2019-01-12T09:23:17.353Z,29.00
2019-01-12T09:25:46.412Z,27.13
2019-01-12T09:28:34.645Z,24.60
2019-01-12T09:31:03.865Z,26.27
2019-01-12T09:33:32.924Z,30.40
2019-01-12T09:36:02.057Z,28.07
2019-01-12T09:38:31.202Z,24.07
2019-01-12T09:41:00.376Z,25.80
2019-01-12T09:43:29.624Z,25.27
2019-01-12T09:45:58.985Z,25.30
2019-01-12T09:48:28.054Z,26.53
2019-01-12T09:50:57.231Z,29.17
2019-01-12T09:53:26.975Z,27.80
2019-01-12T09:55:56.109Z,17.20
2019-01-12T09:58:25.460Z,20.00
2019-01-12T10:00:54.502Z,15.80
2019-01-12T10:03:23.665Z,20.77
2019-01-12T10:05:52.864Z,16.37
2019-01-12T10:08:22.031Z,15.47
2019-01-12T10:10:52.137Z,13.17
2019-01-12T10:13:21.476Z,12.00
2019-01-12T10:15:50.560Z,8.83
2019-01-12T10:18:19.650Z,9.03
2019-01-12T10:20:48.715Z,7.83
2019-01-12T10:23:17.777Z,7.70
2019-01-12T10:25:46.870Z,7.90
2019-01-12T10:28:15.969Z,7.23
2019-01-12T10:30:45.008Z,7.30
2019-01-12T10:33:14.192Z,6.07
2019-01-12T10:35:43.614Z,5.13
2019-01-12T10:38:12.869Z,8.73
2019-01-12T10:40:41.997Z,5.13
2019-01-12T10:43:11.160Z,6.30
2019-01-12T10:45:40.307Z,7.17
2019-01-12T10:48:09.427Z,5.20
2019-01-12T10:50:40.029Z,4.97
2019-01-12T10:53:09.291Z,5.27
2019-01-12T10:55:38.496Z,5.50
2019-01-12T10:58:09.624Z,4.60
2019-01-12T11:00:39.769Z,5.50
2019-01-12T11:03:09.264Z,5.73
2019-01-12T11:05:38.531Z,4.77
2019-01-12T11:08:09.180Z,5.10
2019-01-12T11:10:38.355Z,5.50
2019-01-12T11:13:07.426Z,3.80
2019-01-12T11:15:36.555Z,4.17
2019-01-12T11:18:06.265Z,3.73
2019-01-12T11:20:35.592Z,4.30
2019-01-12T11:23:05.131Z,4.70
2019-01-12T11:25:34.168Z,4.07
2019-01-12T11:28:03.494Z,4.97
2019-01-12T11:30:32.649Z,5.30
2019-01-12T11:33:01.871Z,5.67
2019-01-12T11:35:31.061Z,5.70
2019-01-12T11:38:00.171Z,3.93
2019-01-12T11:40:32.905Z,5.50
2019-01-12T11:43:02.186Z,4.17
2019-01-12T11:45:31.193Z,4.47
2019-01-12T11:48:00.251Z,5.70
2019-01-12T11:50:29.351Z,6.20
2019-01-12T11:52:58.715Z,4.23
2019-01-12T11:55:27.906Z,4.03
2019-01-12T11:57:57.453Z,5.57
2019-01-12T12:00:28.467Z,3.07
2019-01-12T12:02:57.678Z,4.83
2019-01-12T12:05:26.881Z,3.10
2019-01-12T12:07:56.125Z,7.10
2019-01-12T12:10:25.343Z,7.13
2019-01-12T12:12:54.350Z,5.57
2019-01-12T12:15:23.978Z,4.53
2019-01-12T12:17:53.131Z,4.37
2019-01-12T12:20:24.729Z,5.27
2019-01-12T12:22:54.085Z,4.83
2019-01-12T12:25:23.306Z,3.93
2019-01-12T12:27:52.408Z,3.40
2019-01-12T12:30:26.621Z,3.30
2019-01-12T12:32:55.785Z,3.00
2019-01-12T12:35:25.043Z,5.20
2019-01-12T12:37:54.163Z,4.40
2019-01-12T12:40:23.721Z,8.23
2019-01-12T12:42:52.872Z,5.07
2019-01-12T12:45:30.726Z,3.73
2019-01-12T12:47:59.825Z,4.10
2019-01-12T12:50:28.978Z,5.80
2019-01-12T12:52:58.045Z,2.80
2019-01-12T12:55:27.197Z,3.23
2019-01-12T12:57:56.546Z,5.30
2019-01-12T13:00:27.952Z,8.10
2019-01-12T13:02:57.012Z,5.30
2019-01-12T13:05:26.641Z,4.63
2019-01-12T13:07:55.780Z,4.73
2019-01-12T13:10:30.894Z,5.37
2019-01-12T13:13:00.496Z,5.13
2019-01-12T13:15:29.747Z,3.63
2019-01-12T13:17:58.890Z,4.47
2019-01-12T13:20:28.050Z,4.87
2019-01-12T13:22:57.107Z,4.27
2019-01-12T13:25:26.225Z,5.87
2019-01-12T13:27:55.448Z,5.80
2019-01-12T13:30:26.318Z,5.33
2019-01-12T13:32:55.744Z,4.90
2019-01-12T13:35:24.904Z,3.53
2019-01-12T13:37:54.149Z,4.73
2019-01-12T13:40:25.532Z,4.50
2019-01-12T13:42:54.610Z,5.73
2019-01-12T13:45:24.137Z,6.10
2019-01-12T13:47:53.278Z,4.57
2019-01-12T13:50:24.277Z,4.93
2019-01-12T13:52:53.395Z,6.33
2019-01-12T13:55:22.527Z,6.87
2019-01-12T13:57:51.890Z,7.37
2019-01-12T14:00:39.188Z,6.87
2019-01-12T14:03:09.000Z,4.37
2019-01-12T14:05:38.128Z,4.40
2019-01-12T14:08:08.066Z,4.83
2019-01-12T14:10:37.229Z,4.87
2019-01-12T14:13:07.436Z,4.67
2019-01-12T14:15:37.065Z,5.67
2019-01-12T14:18:06.649Z,6.40
2019-01-12T14:20:38.097Z,6.03
2019-01-12T14:23:07.657Z,8.63
2019-01-12T14:25:36.781Z,6.50
2019-01-12T14:28:06.344Z,6.33
2019-01-12T14:30:35.568Z,7.60
2019-01-12T14:33:05.326Z,6.23
2019-01-12T14:35:34.343Z,5.97
2019-01-12T14:38:03.607Z,8.73
2019-01-12T14:40:32.781Z,8.23
2019-01-12T14:43:01.946Z,9.00
2019-01-12T14:45:32.610Z,6.63
2019-01-12T14:48:01.765Z,8.50
2019-01-12T14:50:30.832Z,11.30
2019-01-12T14:52:59.886Z,6.97
2019-01-12T14:55:30.734Z,7.33
2019-01-12T14:58:02.804Z,8.70
2019-01-12T15:00:30.707Z,7.73
2019-01-12T15:02:59.883Z,8.50
2019-01-12T15:05:33.398Z,8.43
2019-01-12T15:08:02.608Z,8.40
2019-01-12T15:10:31.874Z,8.63
2019-01-12T15:13:00.984Z,10.23
2019-01-12T15:15:30.164Z,7.07
2019-01-12T15:17:59.228Z,11.13
2019-01-12T15:20:29.769Z,8.83
2019-01-12T15:22:59.157Z,8.07
2019-01-12T15:25:28.536Z,9.80
2019-01-12T15:27:58.016Z,9.87
2019-01-12T15:30:29.139Z,9.97
2019-01-12T15:32:58.932Z,9.10
2019-01-12T15:35:30.211Z,7.77
2019-01-12T15:37:59.384Z,7.53
2019-01-12T15:40:28.673Z,8.03
2019-01-12T15:42:57.829Z,6.70
2019-01-12T15:45:27.291Z,6.97
2019-01-12T15:47:56.495Z,7.83
2019-01-12T15:50:26.715Z,9.27
2019-01-12T15:52:56.409Z,8.37
2019-01-12T15:55:25.624Z,8.17
2019-01-12T15:57:54.818Z,8.97
2019-01-12T16:00:28.702Z,9.20
2019-01-12T16:02:58.214Z,10.93
2019-01-12T16:05:28.333Z,14.00
2019-01-12T16:07:57.788Z,12.60
2019-01-12T16:10:26.856Z,13.87
2019-01-12T16:12:55.892Z,15.03
2019-01-12T16:15:26.762Z,14.93
2019-01-12T16:17:56.928Z,14.57
2019-01-12T16:20:29.244Z,14.97
2019-01-12T16:22:58.317Z,14.93
2019-01-12T16:25:27.506Z,19.50
2019-01-12T16:27:56.618Z,16.63
2019-01-12T16:30:25.768Z,17.57
2019-01-12T16:32:54.898Z,15.40
2019-01-12T16:35:24.049Z,20.20
2019-01-12T16:37:53.057Z,15.97
2019-01-12T16:40:23.475Z,15.60
2019-01-12T16:42:52.533Z,16.13
2019-01-12T16:45:21.697Z,16.70
2019-01-12T16:47:50.885Z,15.03
2019-01-12T16:50:19.976Z,16.40
2019-01-12T16:52:49.126Z,15.20
2019-01-12T16:55:18.767Z,16.03
2019-01-12T16:57:47.929Z,13.27
2019-01-12T17:00:20.093Z,16.40
2019-01-12T17:02:49.302Z,16.20
2019-01-12T17:05:18.441Z,16.17
2019-01-12T17:07:47.574Z,17.00
2019-01-12T17:10:18.102Z,16.23
2019-01-12T17:12:47.268Z,16.47
2019-01-12T17:15:18.188Z,15.80
2019-01-12T17:17:47.268Z,17.47
2019-01-12T17:20:19.351Z,15.17
2019-01-12T17:22:49.228Z,18.73
2019-01-12T17:25:18.501Z,16.23
2019-01-12T17:27:47.680Z,21.00
2019-01-12T17:30:18.808Z,19.97
2019-01-12T17:32:48.061Z,20.30
2019-01-12T17:35:17.260Z,19.67
2019-01-12T17:37:47.390Z,21.43
2019-01-12T17:40:16.562Z,23.43
2019-01-12T17:42:45.808Z,25.03
2019-01-12T17:45:19.633Z,24.10
2019-01-12T17:47:48.734Z,24.47
2019-01-12T17:50:20.413Z,22.57
2019-01-12T17:52:49.512Z,24.30
2019-01-12T17:55:20.465Z,24.00
2019-01-12T17:57:49.596Z,24.80
2019-01-12T18:00:41.104Z,21.17
2019-01-12T18:03:10.267Z,23.10
2019-01-12T18:05:39.372Z,22.57
2019-01-12T18:08:08.608Z,21.53
2019-01-12T18:10:37.821Z,23.40
2019-01-12T18:13:07.169Z,21.30
2019-01-12T18:15:36.258Z,24.87
2019-01-12T18:18:05.513Z,22.17
2019-01-12T18:20:34.584Z,20.43
2019-01-12T18:23:03.853Z,20.27
2019-01-12T18:25:32.995Z,18.47
2019-01-12T18:28:02.073Z,18.87
2019-01-12T18:30:31.205Z,17.47
2019-01-12T18:33:00.365Z,18.97
2019-01-12T18:35:29.428Z,20.60
2019-01-12T18:37:58.428Z,19.90
2019-01-12T18:40:27.634Z,16.37
2019-01-12T18:42:56.688Z,17.23
2019-01-12T18:45:25.812Z,17.53
2019-01-12T18:47:55.021Z,20.97
2019-01-12T18:50:25.721Z,18.23
2019-01-12T18:52:54.905Z,20.77
2019-01-12T18:55:24.056Z,18.63
2019-01-12T18:57:53.219Z,18.10
2019-01-12T19:00:24.362Z,18.70
2019-01-12T19:02:53.505Z,19.77
2019-01-12T19:05:22.685Z,17.40
2019-01-12T19:07:51.948Z,18.70
2019-01-12T19:10:21.191Z,17.93
2019-01-12T19:12:50.454Z,15.63
2019-01-12T19:15:22.164Z,18.23
2019-01-12T19:17:51.275Z,19.47
2019-01-12T19:20:20.508Z,20.97
2019-01-12T19:22:49.761Z,18.00
2019-01-12T19:25:18.871Z,18.57
2019-01-12T19:27:47.933Z,18.43
2019-01-12T19:30:18.923Z,18.07
2019-01-12T19:32:48.177Z,16.80
2019-01-12T19:35:17.301Z,16.90
2019-01-12T19:37:46.769Z,18.10
2019-01-12T19:40:18.041Z,19.57
2019-01-12T19:42:47.012Z,23.90
2019-01-12T19:45:16.476Z,20.17
2019-01-12T19:47:45.581Z,14.57
2019-01-12T19:50:20.084Z,19.37
2019-01-12T19:52:50.604Z,17.37
2019-01-12T19:55:20.062Z,14.30
2019-01-12T19:57:49.392Z,15.70
2019-01-12T20:00:24.056Z,12.97
2019-01-12T20:02:53.361Z,12.43
2019-01-12T20:05:22.592Z,15.70
2019-01-12T20:07:51.594Z,11.63
2019-01-12T20:10:20.961Z,8.77
2019-01-12T20:12:50.265Z,14.70
2019-01-12T20:15:22.221Z,10.30
2019-01-12T20:17:53.167Z,7.50
2019-01-12T20:20:22.292Z,8.57
2019-01-12T20:22:52.534Z,8.07
2019-01-12T20:25:27.526Z,10.57
2019-01-12T20:27:58.133Z,6.87
2019-01-12T20:31:19.862Z,9.43
2019-01-12T20:34:06.695Z,8.10
2019-01-12T20:37:07.596Z,11.87
2019-01-12T20:39:47.825Z,10.47
2019-01-12T20:43:03.099Z,13.90
2019-01-12T20:45:47.987Z,9.63
2019-01-12T20:48:29.918Z,10.00
2019-01-12T20:51:51.430Z,10.67
2019-01-12T20:54:50.543Z,14.13
2019-01-12T20:57:28.007Z,12.07
2019-01-12T21:00:44.242Z,10.63
2019-01-12T21:03:29.330Z,11.33
2019-01-12T21:06:35.329Z,11.03
2019-01-12T21:09:23.125Z,10.47
2019-01-12T21:12:21.049Z,8.30
2019-01-12T21:15:19.085Z,9.57
2019-01-12T21:17:48.168Z,9.00
2019-01-12T21:20:17.332Z,8.57
2019-01-12T21:22:46.477Z,9.07
2019-01-12T21:25:15.606Z,10.33
2019-01-12T21:27:44.786Z,7.13
2019-01-12T21:30:15.819Z,8.63
2019-01-12T21:32:44.958Z,10.33
2019-01-12T21:35:14.140Z,7.10
2019-01-12T21:37:43.232Z,7.00
2019-01-12T21:40:12.682Z,8.90
2019-01-12T21:42:41.893Z,7.37
2019-01-12T21:45:12.772Z,8.63
2019-01-12T21:47:41.946Z,6.20
2019-01-12T21:50:13.041Z,7.30
2019-01-12T21:52:42.223Z,10.07
2019-01-12T21:55:11.555Z,10.67
2019-01-12T21:57:40.825Z,10.57
2019-01-12T22:00:13.766Z,11.47
2019-01-12T22:02:42.945Z,10.53
2019-01-12T22:05:57.189Z,8.87
2019-01-12T22:08:20.860Z,10.57
2019-01-12T22:10:49.959Z,10.90
2019-01-12T22:13:19.007Z,12.03
2019-01-12T22:15:48.064Z,11.57
2019-01-12T22:18:17.213Z,7.33
2019-01-12T22:20:46.399Z,8.97
2019-01-12T22:23:15.485Z,7.67
2019-01-12T22:25:44.733Z,7.03
2019-01-12T22:28:13.749Z,5.77
2019-01-12T22:30:42.909Z,7.50
2019-01-12T22:33:12.159Z,6.77
2019-01-12T22:35:41.308Z,6.50
2019-01-12T22:38:12.122Z,7.90
2019-01-12T22:40:43.016Z,10.60
2019-01-12T22:43:11.887Z,11.10
2019-01-12T22:45:53.344Z,10.23
2019-01-12T22:48:22.493Z,10.60
2019-01-12T22:50:51.483Z,9.17
2019-01-12T22:53:20.487Z,8.30
2019-01-12T22:55:49.569Z,8.40
2019-01-12T22:58:18.548Z,11.33
2019-01-12T23:00:55.531Z,10.40
2019-01-12T23:03:24.758Z,8.93
2019-01-12T23:05:53.944Z,8.13
2019-01-12T23:08:23.033Z,8.77
2019-01-12T23:10:52.152Z,9.57
2019-01-12T23:13:21.343Z,9.77
2019-01-12T23:15:50.452Z,8.03
2019-01-12T23:18:19.579Z,10.40
2019-01-12T23:20:48.753Z,9.97
2019-01-12T23:23:17.986Z,6.70
2019-01-12T23:25:47.345Z,10.53
2019-01-12T23:28:16.463Z,9.23
2019-01-12T23:30:45.701Z,8.70
2019-01-12T23:33:14.975Z,11.60
2019-01-12T23:35:44.197Z,8.60
2019-01-12T23:38:13.873Z,9.77
2019-01-12T23:40:44.273Z,7.67
2019-01-12T23:43:13.646Z,9.70
2019-01-12T23:45:42.817Z,8.57
2019-01-12T23:48:11.926Z,13.00
2019-01-12T23:50:40.882Z,11.70
2019-01-12T23:53:10.065Z,8.50
2019-01-12T23:55:39.081Z,6.37
2019-01-12T23:58:08.243Z,7.33
